sensor_id;sensor_type;location;lat;lon;timestamp;pressure;altitude;pressure_sealevel;temperature;humidity
20156;BME280;10238;49.556;10.956;2024-01-16T00:02:48;97507.25;;;-0.66;100.00
20156;BME280;10238;49.556;10.956;2024-01-16T00:05:35;97508.16;;;-0.67;100.00
20156;BME280;10238;49.556;10.956;2024-01-16T00:08:23;97519.13;;;-0.62;100.00
20156;BME280;10238;49.556;10.956;2024-01-16T00:11:11;97513.19;;;-0.64;100.00
20156;BME280;10238;49.556;10.956;2024-01-16T00:13:58;97510.56;;;-0.64;100.00
20156;BME280;10238;49.556;10.956;2024-01-16T00:16:46;97521.00;;;-0.64;100.00
20156;BME280;10238;49.556;10.956;2024-01-16T00:19:36;97517.69;;;-0.66;100.00
20156;BME280;10238;49.556;10.956;2024-01-16T00:22:24;97518.72;;;-0.69;100.00
20156;BME280;10238;49.556;10.956;2024-01-16T00:25:12;97514.88;;;-0.63;100.00
20156;BME280;10238;49.556;10.956;2024-01-16T00:28:01;97519.34;;;-0.65;100.00
20156;BME280;10238;49.556;10.956;2024-01-16T00:30:49;97531.44;;;-0.64;100.00
20156;BME280;10238;49.556;10.956;2024-01-16T00:33:37;97517.69;;;-0.66;100.00
20156;BME280;10238;49.556;10.956;2024-01-16T00:36:26;97526.44;;;-0.67;100.00
20156;BME280;10238;49.556;10.956;2024-01-16T00:39:13;97525.63;;;-0.68;100.00
20156;BME280;10238;49.556;10.956;2024-01-16T00:42:02;97526.66;;;-0.70;100.00
20156;BME280;10238;49.556;10.956;2024-01-16T00:44:49;97528.53;;;-0.72;100.00
20156;BME280;10238;49.556;10.956;2024-01-16T00:47:37;97530.41;;;-0.74;100.00
20156;BME280;10238;49.556;10.956;2024-01-16T00:50:24;97525.94;;;-0.72;100.00
20156;BME280;10238;49.556;10.956;2024-01-16T00:53:16;97531.25;;;-0.74;100.00
20156;BME280;10238;49.556;10.956;2024-01-16T00:56:04;97529.59;;;-0.75;100.00
20156;BME280;10238;49.556;10.956;2024-01-16T00:58:52;97539.41;;;-0.78;100.00
20156;BME280;10238;49.556;10.956;2024-01-16T01:01:40;97537.53;;;-0.76;100.00
20156;BME280;10238;49.556;10.956;2024-01-16T01:04:27;97541.28;;;-0.80;100.00
20156;BME280;10238;49.556;10.956;2024-01-16T01:07:15;97537.75;;;-0.79;100.00
20156;BME280;10238;49.556;10.956;2024-01-16T01:10:05;97540.44;;;-0.81;100.00
20156;BME280;10238;49.556;10.956;2024-01-16T01:12:53;97557.97;;;-0.83;100.00
20156;BME280;10238;49.556;10.956;2024-01-16T01:15:41;97549.19;;;-0.82;100.00
20156;BME280;10238;49.556;10.956;2024-01-16T01:18:29;97551.09;;;-0.84;100.00
20156;BME280;10238;49.556;10.956;2024-01-16T01:21:17;97557.97;;;-0.83;100.00
20156;BME280;10238;49.556;10.956;2024-01-16T01:24:04;97558.06;;;-0.84;100.00
20156;BME280;10238;49.556;10.956;2024-01-16T01:26:53;97558.28;;;-0.87;100.00
20156;BME280;10238;49.556;10.956;2024-01-16T01:29:41;97561.84;;;-0.88;100.00
20156;BME280;10238;49.556;10.956;2024-01-16T01:32:28;97566.31;;;-0.90;100.00
20156;BME280;10238;49.556;10.956;2024-01-16T01:35:17;97570.81;;;-0.92;100.00
20156;BME280;10238;49.556;10.956;2024-01-16T01:38:06;97581.25;;;-0.92;100.00
20156;BME280;10238;49.556;10.956;2024-01-16T01:40:55;97594.19;;;-0.91;100.00
20156;BME280;10238;49.556;10.956;2024-01-16T01:43:44;97583.66;;;-0.89;100.00
20156;BME280;10238;49.556;10.956;2024-01-16T01:46:34;97585.31;;;-0.88;100.00
20156;BME280;10238;49.556;10.956;2024-01-16T01:49:25;97595.53;;;-0.85;100.00
20156;BME280;10238;49.556;10.956;2024-01-16T01:52:13;97606.19;;;-0.88;100.00
20156;BME280;10238;49.556;10.956;2024-01-16T01:55:03;97605.44;;;-0.90;100.00
20156;BME280;10238;49.556;10.956;2024-01-16T01:57:53;97608.88;;;-0.90;100.00
20156;BME280;10238;49.556;10.956;2024-01-16T02:00:42;97608.03;;;-0.90;100.00
20156;BME280;10238;49.556;10.956;2024-01-16T02:03:36;97602.81;;;-0.90;100.00
20156;BME280;10238;49.556;10.956;2024-01-16T02:06:26;97610.66;;;-0.90;100.00
20156;BME280;10238;49.556;10.956;2024-01-16T02:09:14;97622.88;;;-0.91;100.00
20156;BME280;10238;49.556;10.956;2024-01-16T02:12:02;97623.78;;;-0.92;100.00
20156;BME280;10238;49.556;10.956;2024-01-16T02:14:50;97622.97;;;-0.92;100.00
20156;BME280;10238;49.556;10.956;2024-01-16T02:17:39;97614.94;;;-0.89;100.00
20156;BME280;10238;49.556;10.956;2024-01-16T02:20:27;97621.81;;;-0.88;100.00
20156;BME280;10238;49.556;10.956;2024-01-16T02:23:15;97620.16;;;-0.89;100.00
20156;BME280;10238;49.556;10.956;2024-01-16T02:26:07;97621.09;;;-0.90;100.00
20156;BME280;10238;49.556;10.956;2024-01-16T02:28:55;97632.47;;;-0.91;100.00
20156;BME280;10238;49.556;10.956;2024-01-16T02:31:43;97642.91;;;-0.91;100.00
20156;BME280;10238;49.556;10.956;2024-01-16T02:34:30;97636.72;;;-0.90;100.00
20156;BME280;10238;49.556;10.956;2024-01-16T02:37:18;97629.75;;;-0.90;100.00
20156;BME280;10238;49.556;10.956;2024-01-16T02:40:07;97633.22;;;-0.89;100.00
20156;BME280;10238;49.556;10.956;2024-01-16T02:42:57;97640.19;;;-0.90;100.00
20156;BME280;10238;49.556;10.956;2024-01-16T02:45:44;97646.25;;;-0.89;100.00
20156;BME280;10238;49.556;10.956;2024-01-16T02:48:31;97644.66;;;-0.92;100.00
20156;BME280;10238;49.556;10.956;2024-01-16T02:51:19;97651.66;;;-0.92;100.00
20156;BME280;10238;49.556;10.956;2024-01-16T02:54:07;97645.81;;;-0.96;100.00
20156;BME280;10238;49.556;10.956;2024-01-16T02:56:55;97643.28;;;-0.97;100.00
20156;BME280;10238;49.556;10.956;2024-01-16T02:59:45;97649.38;;;-0.97;100.00
20156;BME280;10238;49.556;10.956;2024-01-16T03:02:33;97649.47;;;-0.98;100.00
20156;BME280;10238;49.556;10.956;2024-01-16T03:05:21;97649.38;;;-0.97;100.00
20156;BME280;10238;49.556;10.956;2024-01-16T03:08:09;97660.59;;;-0.96;100.00
20156;BME280;10238;49.556;10.956;2024-01-16T03:10:56;97655.50;;;-0.98;100.00
20156;BME280;10238;49.556;10.956;2024-01-16T03:13:44;97662.50;;;-0.98;100.00
20156;BME280;10238;49.556;10.956;2024-01-16T03:16:33;97660.09;;;-1.01;100.00
20156;BME280;10238;49.556;10.956;2024-01-16T03:19:21;97655.78;;;-1.02;100.00
20156;BME280;10238;49.556;10.956;2024-01-16T03:22:09;97669.56;;;-1.00;100.00
20156;BME280;10238;49.556;10.956;2024-01-16T03:24:56;97673.94;;;-1.01;100.00
20156;BME280;10238;49.556;10.956;2024-01-16T03:27:44;97667.72;;;-0.98;100.00
20156;BME280;10238;49.556;10.956;2024-01-16T03:30:31;97672.94;;;-0.98;100.00
20156;BME280;10238;49.556;10.956;2024-01-16T03:33:20;97671.25;;;-0.99;100.00
20156;BME280;10238;49.556;10.956;2024-01-16T03:36:09;97665.31;;;-1.01;100.00
20156;BME280;10238;49.556;10.956;2024-01-16T03:38:57;97676.66;;;-1.02;100.00
20156;BME280;10238;49.556;10.956;2024-01-16T03:41:45;97672.28;;;-1.02;100.00
20156;BME280;10238;49.556;10.956;2024-01-16T03:44:32;97676.75;;;-1.04;100.00
20156;BME280;10238;49.556;10.956;2024-01-16T03:47:20;97680.22;;;-1.03;100.00
20156;BME280;10238;49.556;10.956;2024-01-16T03:50:10;97676.66;;;-1.02;100.00
20156;BME280;10238;49.556;10.956;2024-01-16T03:52:57;97678.34;;;-1.01;100.00
20156;BME280;10238;49.556;10.956;2024-01-16T03:55:45;97680.22;;;-1.03;100.00
20156;BME280;10238;49.556;10.956;2024-01-16T03:58:32;97675.19;;;-1.06;100.00
20156;BME280;10238;49.556;10.956;2024-01-16T04:01:30;97674.47;;;-1.08;100.00
20156;BME280;10238;49.556;10.956;2024-01-16T04:04:18;97673.63;;;-1.09;100.00
20156;BME280;10238;49.556;10.956;2024-01-16T04:07:08;97676.34;;;-1.10;100.00
20156;BME280;10238;49.556;10.956;2024-01-16T04:09:55;97673.94;;;-1.13;100.00
20156;BME280;10238;49.556;10.956;2024-01-16T04:12:43;97674.97;;;-1.16;100.00
20156;BME280;10238;49.556;10.956;2024-01-16T04:15:30;97674.22;;;-1.18;100.00
20156;BME280;10238;49.556;10.956;2024-01-16T04:18:18;97675.97;;;-1.18;100.00
20156;BME280;10238;49.556;10.956;2024-01-16T04:21:06;97674.63;;;-1.24;100.00
20156;BME280;10238;49.556;10.956;2024-01-16T04:23:55;97670.53;;;-1.28;100.00
20156;BME280;10238;49.556;10.956;2024-01-16T04:26:43;97671.59;;;-1.30;100.00
20156;BME280;10238;49.556;10.956;2024-01-16T04:29:31;97668.78;;;-1.27;100.00
20156;BME280;10238;49.556;10.956;2024-01-16T04:32:19;97670.34;;;-1.25;100.00
20156;BME280;10238;49.556;10.956;2024-01-16T04:35:07;97671.38;;;-1.27;100.00
20156;BME280;10238;49.556;10.956;2024-01-16T04:37:55;97670.63;;;-1.29;100.00
20156;BME280;10238;49.556;10.956;2024-01-16T04:40:44;97662.81;;;-1.29;100.00
20156;BME280;10238;49.556;10.956;2024-01-16T04:43:31;97667.09;;;-1.28;100.00
20156;BME280;10238;49.556;10.956;2024-01-16T04:46:19;97668.03;;;-1.29;100.00
20156;BME280;10238;49.556;10.956;2024-01-16T04:49:07;97665.53;;;-1.31;100.00
20156;BME280;10238;49.556;10.956;2024-01-16T04:51:55;97667.28;;;-1.31;100.00
20156;BME280;10238;49.556;10.956;2024-01-16T04:54:42;97660.31;;;-1.31;100.00
20156;BME280;10238;49.556;10.956;2024-01-16T04:57:33;97658.75;;;-1.33;100.00
20156;BME280;10238;49.556;10.956;2024-01-16T05:00:21;97660.31;;;-1.31;100.00
20156;BME280;10238;49.556;10.956;2024-01-16T05:03:09;97661.56;;;-1.36;100.00
20156;BME280;10238;49.556;10.956;2024-01-16T05:05:57;97663.41;;;-1.38;100.00
20156;BME280;10238;49.556;10.956;2024-01-16T05:08:44;97668.91;;;-1.43;100.00
20156;BME280;10238;49.556;10.956;2024-01-16T05:11:32;97661.19;;;-1.44;100.00
20156;BME280;10238;49.556;10.956;2024-01-16T05:14:21;97657.13;;;-1.48;100.00
20156;BME280;10238;49.556;10.956;2024-01-16T05:17:11;97666.78;;;-1.50;100.00
20156;BME280;10238;49.556;10.956;2024-01-16T05:19:59;97667.75;;;-1.51;100.00
20156;BME280;10238;49.556;10.956;2024-01-16T05:22:47;97658.34;;;-1.54;100.00
20156;BME280;10238;49.556;10.956;2024-01-16T05:25:35;97666.88;;;-1.52;100.00
20156;BME280;10238;49.556;10.956;2024-01-16T05:28:24;97657.50;;;-1.54;100.00
20156;BME280;10238;49.556;10.956;2024-01-16T05:31:13;97658.34;;;-1.54;100.00
20156;BME280;10238;49.556;10.956;2024-01-16T05:34:00;97657.50;;;-1.54;100.00
20156;BME280;10238;49.556;10.956;2024-01-16T05:36:48;97648.75;;;-1.53;100.00
20156;BME280;10238;49.556;10.956;2024-01-16T05:39:36;97650.53;;;-1.54;100.00
20156;BME280;10238;49.556;10.956;2024-01-16T05:42:24;97657.31;;;-1.51;100.00
20156;BME280;10238;49.556;10.956;2024-01-16T05:45:12;97657.22;;;-1.50;100.00
20156;BME280;10238;49.556;10.956;2024-01-16T05:48:01;97648.56;;;-1.50;100.00
20156;BME280;10238;49.556;10.956;2024-01-16T05:50:50;97649.69;;;-1.54;100.00
20156;BME280;10238;49.556;10.956;2024-01-16T05:53:37;97657.50;;;-1.54;100.00
20156;BME280;10238;49.556;10.956;2024-01-16T05:56:25;97658.34;;;-1.54;100.00
20156;BME280;10238;49.556;10.956;2024-01-16T05:59:13;97671.28;;;-1.52;100.00
20156;BME280;10238;49.556;10.956;2024-01-16T06:02:00;97667.75;;;-1.51;100.00
20156;BME280;10238;49.556;10.956;2024-01-16T06:04:49;97662.44;;;-1.50;100.00
20156;BME280;10238;49.556;10.956;2024-01-16T06:07:37;97663.38;;;-1.51;100.00
20156;BME280;10238;49.556;10.956;2024-01-16T06:10:26;97679.00;;;-1.51;100.00
20156;BME280;10238;49.556;10.956;2024-01-16T06:13:13;97676.41;;;-1.51;100.00
20156;BME280;10238;49.556;10.956;2024-01-16T06:16:01;97679.81;;;-1.50;100.00
20156;BME280;10238;49.556;10.956;2024-01-16T06:18:49;97680.66;;;-1.50;100.00
20156;BME280;10238;49.556;10.956;2024-01-16T06:21:38;97685.88;;;-1.50;100.00
20156;BME280;10238;49.556;10.956;2024-01-16T06:24:27;97690.25;;;-1.50;100.00
20156;BME280;10238;49.556;10.956;2024-01-16T06:27:15;97698.91;;;-1.50;100.00
20156;BME280;10238;49.556;10.956;2024-01-16T06:30:07;97689.44;;;-1.51;100.00
20156;BME280;10238;49.556;10.956;2024-01-16T06:32:55;97692.94;;;-1.52;100.00
20156;BME280;10238;49.556;10.956;2024-01-16T06:35:42;97692.94;;;-1.52;100.00
20156;BME280;10238;49.556;10.956;2024-01-16T06:38:32;97703.28;;;-1.50;100.00
20156;BME280;10238;49.556;10.956;2024-01-16T06:41:19;97702.34;;;-1.49;100.00
20156;BME280;10238;49.556;10.956;2024-01-16T06:44:07;97705.06;;;-1.51;100.00
20156;BME280;10238;49.556;10.956;2024-01-16T06:46:55;97697.34;;;-1.52;100.00
20156;BME280;10238;49.556;10.956;2024-01-16T06:49:42;97702.75;;;-1.55;100.00
20156;BME280;10238;49.556;10.956;2024-01-16T06:52:30;97693.31;;;-1.58;100.00
20156;BME280;10238;49.556;10.956;2024-01-16T06:55:19;97695.13;;;-1.58;100.00
20156;BME280;10238;49.556;10.956;2024-01-16T06:58:06;97694.47;;;-1.62;100.00
20156;BME280;10238;49.556;10.956;2024-01-16T07:00:56;97699.78;;;-1.63;100.00
20156;BME280;10238;49.556;10.956;2024-01-16T07:03:43;97700.81;;;-1.66;100.00
20156;BME280;10238;49.556;10.956;2024-01-16T07:06:31;97702.66;;;-1.68;100.00
20156;BME280;10238;49.556;10.956;2024-01-16T07:09:21;97697.63;;;-1.71;100.00
20156;BME280;10238;49.556;10.956;2024-01-16T07:12:11;97690.09;;;-1.75;100.00
20156;BME280;10238;49.556;10.956;2024-01-16T07:14:59;97693.84;;;-1.79;100.00
20156;BME280;10238;49.556;10.956;2024-01-16T07:17:47;97693.31;;;-1.84;100.00
20156;BME280;10238;49.556;10.956;2024-01-16T07:20:35;97692.66;;;-1.88;100.00
20156;BME280;10238;49.556;10.956;2024-01-16T07:23:22;97692.94;;;-1.92;100.00
20156;BME280;10238;49.556;10.956;2024-01-16T07:26:10;97697.50;;;-1.96;100.00
20156;BME280;10238;49.556;10.956;2024-01-16T07:28:59;97708.94;;;-1.98;100.00
20156;BME280;10238;49.556;10.956;2024-01-16T07:31:47;97715.63;;;-1.94;100.00
20156;BME280;10238;49.556;10.956;2024-01-16T07:34:35;97727.72;;;-1.93;100.00
20156;BME280;10238;49.556;10.956;2024-01-16T07:37:22;97727.72;;;-1.93;100.00
20156;BME280;10238;49.556;10.956;2024-01-16T07:40:11;97724.00;;;-1.89;100.00
20156;BME280;10238;49.556;10.956;2024-01-16T07:42:58;97724.75;;;-1.87;100.00
20156;BME280;10238;49.556;10.956;2024-01-16T07:45:47;97729.00;;;-1.86;100.00
20156;BME280;10238;49.556;10.956;2024-01-16T07:48:35;97732.66;;;-1.89;100.00
20156;BME280;10238;49.556;10.956;2024-01-16T07:51:22;97736.06;;;-1.88;100.00
20156;BME280;10238;49.556;10.956;2024-01-16T07:54:10;97739.63;;;-1.89;100.00
20156;BME280;10238;49.556;10.956;2024-01-16T07:56:59;97741.28;;;-1.88;100.00
20156;BME280;10238;49.556;10.956;2024-01-16T07:59:47;97737.78;;;-1.87;100.00
20156;BME280;10238;49.556;10.956;2024-01-16T08:02:36;97740.09;;;-1.83;100.00
20156;BME280;10238;49.556;10.956;2024-01-16T08:05:24;97748.53;;;-1.79;100.00
20156;BME280;10238;49.556;10.956;2024-01-16T08:08:14;97736.28;;;-1.77;100.00
20156;BME280;10238;49.556;10.956;2024-01-16T08:11:02;97742.19;;;-1.75;100.00
20156;BME280;10238;49.556;10.956;2024-01-16T08:13:50;97744.53;;;-1.71;100.00
20156;BME280;10238;49.556;10.956;2024-01-16T08:16:37;97748.72;;;-1.68;100.00
20156;BME280;10238;49.556;10.956;2024-01-16T08:19:26;97745.00;;;-1.64;100.00
20156;BME280;10238;49.556;10.956;2024-01-16T08:22:14;97745.56;;;-1.59;100.00
20156;BME280;10238;49.556;10.956;2024-01-16T08:25:01;97744.25;;;-1.52;100.00
20156;BME280;10238;49.556;10.956;2024-01-16T08:27:51;97745.53;;;-1.45;100.00
20156;BME280;10238;49.556;10.956;2024-01-16T08:30:38;97752.00;;;-1.38;100.00
20156;BME280;10238;49.556;10.956;2024-01-16T08:33:26;97751.63;;;-1.32;100.00
20156;BME280;10238;49.556;10.956;2024-01-16T08:36:27;97752.91;;;-1.25;100.00
20156;BME280;10238;49.556;10.956;2024-01-16T08:39:15;97743.97;;;-1.21;100.00
20156;BME280;10238;49.556;10.956;2024-01-16T08:42:03;97747.03;;;-1.15;100.00
20156;BME280;10238;49.556;10.956;2024-01-16T08:44:51;97750.47;;;-1.14;100.00
20156;BME280;10238;49.556;10.956;2024-01-16T08:47:38;97753.81;;;-1.12;100.00
20156;BME280;10238;49.556;10.956;2024-01-16T08:50:26;97752.47;;;-1.05;100.00
20156;BME280;10238;49.556;10.956;2024-01-16T08:53:16;97753.00;;;-1.13;100.00
20156;BME280;10238;49.556;10.956;2024-01-16T08:56:04;97745.47;;;-1.17;100.00
20156;BME280;10238;49.556;10.956;2024-01-16T08:58:55;97743.97;;;-1.21;100.00
20156;BME280;10238;49.556;10.956;2024-01-16T09:01:43;97734.44;;;-1.08;100.00
20156;BME280;10238;49.556;10.956;2024-01-16T09:04:30;97726.34;;;-0.91;100.00
20156;BME280;10238;49.556;10.956;2024-01-16T09:07:18;97736.72;;;-0.77;100.00
20156;BME280;10238;49.556;10.956;2024-01-16T09:10:09;97738.31;;;-0.75;100.00
20156;BME280;10238;49.556;10.956;2024-01-16T09:12:56;97745.09;;;-0.72;100.00
20156;BME280;10238;49.556;10.956;2024-01-16T09:15:45;97744.59;;;-0.65;100.00
20156;BME280;10238;49.556;10.956;2024-01-16T09:18:33;97738.13;;;-0.59;100.00
20156;BME280;10238;49.556;10.956;2024-01-16T09:21:20;97740.84;;;-0.48;100.00
20156;BME280;10238;49.556;10.956;2024-01-16T09:24:08;97749.00;;;-0.40;100.00
20156;BME280;10238;49.556;10.956;2024-01-16T09:26:57;97753.22;;;-0.25;100.00
20156;BME280;10238;49.556;10.956;2024-01-16T09:29:45;97748.59;;;-0.22;100.00
20156;BME280;10238;49.556;10.956;2024-01-16T09:32:33;97752.16;;;-0.23;100.00
20156;BME280;10238;49.556;10.956;2024-01-16T09:35:21;97753.00;;;-0.22;100.00
20156;BME280;10238;49.556;10.956;2024-01-16T09:38:09;97747.25;;;-0.27;100.00
20156;BME280;10238;49.556;10.956;2024-01-16T09:40:56;97757.59;;;-0.13;100.00
20156;BME280;10238;49.556;10.956;2024-01-16T09:43:48;97763.78;;;-0.02;100.00
20156;BME280;10238;49.556;10.956;2024-01-16T09:46:38;97759.50;;;0.10;100.00
20156;BME280;10238;49.556;10.956;2024-01-16T09:49:27;97760.41;;;0.09;100.00
20156;BME280;10238;49.556;10.956;2024-01-16T09:52:19;97754.56;;;0.06;100.00
20156;BME280;10238;49.556;10.956;2024-01-16T09:55:08;97763.44;;;0.03;100.00
20156;BME280;10238;49.556;10.956;2024-01-16T09:57:56;97755.72;;;0.01;100.00
20156;BME280;10238;49.556;10.956;2024-01-16T10:00:47;97756.34;;;0.18;100.00
20156;BME280;10238;49.556;10.956;2024-01-16T10:03:35;97754.31;;;0.46;100.00
20156;BME280;10238;49.556;10.956;2024-01-16T10:06:24;97751.66;;;0.71;100.00
20156;BME280;10238;49.556;10.956;2024-01-16T10:09:12;97746.78;;;0.90;100.00
20156;BME280;10238;49.556;10.956;2024-01-16T10:12:01;97760.63;;;1.03;100.00
20156;BME280;10238;49.556;10.956;2024-01-16T10:14:49;97762.81;;;1.09;100.00
20156;BME280;10238;49.556;10.956;2024-01-16T10:17:41;97754.09;;;1.21;100.00
20156;BME280;10238;49.556;10.956;2024-01-16T10:20:33;97744.53;;;1.20;100.00
20156;BME280;10238;49.556;10.956;2024-01-16T10:23:23;97742.44;;;1.25;100.00
20156;BME280;10238;49.556;10.956;2024-01-16T10:26:12;97749.84;;;1.31;100.00
20156;BME280;10238;49.556;10.956;2024-01-16T10:33:21;97730.13;;;1.49;100.00
20156;BME280;10238;49.556;10.956;2024-01-16T10:36:12;97729.78;;;1.54;100.00
20156;BME280;10238;49.556;10.956;2024-01-16T10:39:03;97722.91;;;1.64;100.00
20156;BME280;10238;49.556;10.956;2024-01-16T10:41:55;97722.34;;;1.71;100.00
20156;BME280;10238;49.556;10.956;2024-01-16T10:44:53;97730.56;;;1.78;100.00
20156;BME280;10238;49.556;10.956;2024-01-16T10:47:41;97723.31;;;1.81;100.00
20156;BME280;10238;49.556;10.956;2024-01-16T10:50:30;97717.72;;;1.86;100.00
20156;BME280;10238;49.556;10.956;2024-01-16T10:53:22;97712.59;;;1.84;100.00
20156;BME280;10238;49.556;10.956;2024-01-16T10:56:12;97718.78;;;1.83;100.00
20156;BME280;10238;49.556;10.956;2024-01-16T10:59:20;97727.97;;;1.78;100.00
20156;BME280;10238;49.556;10.956;2024-01-16T11:02:29;97719.81;;;1.70;100.00
20156;BME280;10238;49.556;10.956;2024-01-16T11:05:21;97715.50;;;1.47;100.00
20156;BME280;10238;49.556;10.956;2024-01-16T11:12:22;97719.47;;;1.74;100.00
20156;BME280;10238;49.556;10.956;2024-01-16T11:15:12;97720.91;;;1.78;100.00
20156;BME280;10238;49.556;10.956;2024-01-16T11:18:01;97717.09;;;1.71;100.00
20156;BME280;10238;49.556;10.956;2024-01-16T11:20:52;97718.66;;;1.74;100.00
20156;BME280;10238;49.556;10.956;2024-01-16T11:23:53;97714.47;;;1.71;100.00
20156;BME280;10238;49.556;10.956;2024-01-16T11:26:41;97708.41;;;1.71;100.00
20156;BME280;10238;49.556;10.956;2024-01-16T11:29:37;97707.53;;;1.59;100.00
20156;BME280;10238;49.556;10.956;2024-01-16T11:32:34;97701.59;;;1.57;100.00
20156;BME280;10238;49.556;10.956;2024-01-16T11:35:32;97696.81;;;1.62;100.00
20156;BME280;10238;49.556;10.956;2024-01-16T11:38:21;97704.22;;;1.68;100.00
20156;BME280;10238;49.556;10.956;2024-01-16T11:41:48;97709.13;;;1.73;100.00
20156;BME280;10238;49.556;10.956;2024-01-16T11:44:42;97698.91;;;1.81;100.00
20156;BME280;10238;49.556;10.956;2024-01-16T11:47:33;97697.31;;;1.67;100.00
20156;BME280;10238;49.556;10.956;2024-01-16T11:50:28;97689.25;;;1.70;100.00
20156;BME280;10238;49.556;10.956;2024-01-16T11:53:38;97687.81;;;1.77;100.00
20156;BME280;10238;49.556;10.956;2024-01-16T11:57:04;97684.50;;;1.86;100.00
20156;BME280;10238;49.556;10.956;2024-01-16T12:00:03;97685.69;;;1.82;100.00
20156;BME280;10238;49.556;10.956;2024-01-16T12:03:02;97686.66;;;1.92;100.00
20156;BME280;10238;49.556;10.956;2024-01-16T12:05:55;97680.72;;;2.01;100.00
20156;BME280;10238;49.556;10.956;2024-01-16T12:08:43;97680.22;;;1.96;100.00
20156;BME280;10238;49.556;10.956;2024-01-16T12:11:30;97673.91;;;1.77;100.00
20156;BME280;10238;49.556;10.956;2024-01-16T12:14:29;97664.75;;;1.82;100.00
20156;BME280;10238;49.556;10.956;2024-01-16T12:17:18;97667.34;;;1.93;100.00
20156;BME280;10238;49.556;10.956;2024-01-16T12:20:17;97653.41;;;2.26;100.00
20156;BME280;10238;49.556;10.956;2024-01-16T12:23:07;97648.47;;;2.55;100.00
20156;BME280;10238;49.556;10.956;2024-01-16T12:25:55;97632.22;;;2.61;100.00
20156;BME280;10238;49.556;10.956;2024-01-16T12:28:51;97623.75;;;2.68;100.00
20156;BME280;10238;49.556;10.956;2024-01-16T12:31:45;97621.91;;;2.80;100.00
20156;BME280;10238;49.556;10.956;2024-01-16T12:34:34;97623.31;;;2.95;100.00
20156;BME280;10238;49.556;10.956;2024-01-16T12:37:22;97608.03;;;3.00;100.00
20156;BME280;10238;49.556;10.956;2024-01-16T12:40:10;97600.97;;;3.21;100.00
20156;BME280;10238;49.556;10.956;2024-01-16T12:43:51;97606.88;;;3.34;100.00
20156;BME280;10238;49.556;10.956;2024-01-16T12:46:54;97598.94;;;3.24;100.00
20156;BME280;10238;49.556;10.956;2024-01-16T12:49:43;97595.72;;;3.21;100.00
20156;BME280;10238;49.556;10.956;2024-01-16T12:52:31;97591.75;;;3.06;100.00
20156;BME280;10238;49.556;10.956;2024-01-16T12:55:18;97591.16;;;2.82;100.00
20156;BME280;10238;49.556;10.956;2024-01-16T12:58:15;97582.53;;;2.59;100.00
20156;BME280;10238;49.556;10.956;2024-01-16T13:01:26;97585.50;;;2.55;100.00
20156;BME280;10238;49.556;10.956;2024-01-16T13:04:25;97586.41;;;2.44;100.00
20156;BME280;10238;49.556;10.956;2024-01-16T13:07:16;97582.88;;;2.23;100.00
20156;BME280;10238;49.556;10.956;2024-01-16T13:10:09;97583.44;;;2.38;100.00
20156;BME280;10238;49.556;10.956;2024-01-16T13:13:15;97591.94;;;2.62;100.00
20156;BME280;10238;49.556;10.956;2024-01-16T13:16:06;97585.31;;;2.78;100.00
20156;BME280;10238;49.556;10.956;2024-01-16T13:19:01;97583.19;;;2.72;100.00
20156;BME280;10238;49.556;10.956;2024-01-16T13:21:51;97576.22;;;2.62;100.00
20156;BME280;10238;49.556;10.956;2024-01-16T13:24:40;97566.22;;;2.45;100.00
20156;BME280;10238;49.556;10.956;2024-01-16T13:27:36;97567.44;;;2.41;100.00
20156;BME280;10238;49.556;10.956;2024-01-16T13:30:24;97578.31;;;2.36;100.00
20156;BME280;10238;49.556;10.956;2024-01-16T13:33:29;97588.22;;;2.21;100.00
20156;BME280;10238;49.556;10.956;2024-01-16T13:36:19;97579.06;;;2.16;100.00
20156;BME280;10238;49.556;10.956;2024-01-16T13:39:29;97581.78;;;2.25;100.00
20156;BME280;10238;49.556;10.956;2024-01-16T13:42:19;97574.50;;;2.29;100.00
20156;BME280;10238;49.556;10.956;2024-01-16T13:45:07;97557.81;;;2.41;100.00
20156;BME280;10238;49.556;10.956;2024-01-16T13:47:56;97545.97;;;2.47;100.00
20156;BME280;10238;49.556;10.956;2024-01-16T13:50:44;97541.56;;;2.47;100.00
20156;BME280;10238;49.556;10.956;2024-01-16T13:53:33;97540.81;;;2.56;100.00
20156;BME280;10238;49.556;10.956;2024-01-16T13:56:22;97532.56;;;2.61;100.00
20156;BME280;10238;49.556;10.956;2024-01-16T13:59:29;97529.75;;;2.53;100.00
20156;BME280;10238;49.556;10.956;2024-01-16T14:02:17;97528.31;;;2.49;100.00
20156;BME280;10238;49.556;10.956;2024-01-16T14:05:05;97539.25;;;2.65;100.00
20156;BME280;10238;49.556;10.956;2024-01-16T14:07:55;97530.94;;;2.80;100.00
20156;BME280;10238;49.556;10.956;2024-01-16T14:10:45;97544.94;;;2.70;100.00
20156;BME280;10238;49.556;10.956;2024-01-16T14:13:34;97529.16;;;2.49;100.00
20156;BME280;10238;49.556;10.956;2024-01-16T14:16:23;97534.81;;;2.34;100.00
20156;BME280;10238;49.556;10.956;2024-01-16T14:19:31;97535.75;;;2.44;100.00
20156;BME280;10238;49.556;10.956;2024-01-16T14:22:19;97539.56;;;2.40;100.00
20156;BME280;10238;49.556;10.956;2024-01-16T14:25:08;97534.81;;;2.34;100.00
20156;BME280;10238;49.556;10.956;2024-01-16T14:28:04;97529.16;;;2.17;100.00
20156;BME280;10238;49.556;10.956;2024-01-16T14:31:00;97526.06;;;2.12;100.00
20156;BME280;10238;49.556;10.956;2024-01-16T14:33:48;97535.84;;;2.10;100.00
20156;BME280;10238;49.556;10.956;2024-01-16T14:36:36;97542.97;;;2.08;100.00
20156;BME280;10238;49.556;10.956;2024-01-16T14:39:24;97537.25;;;2.03;100.00
20156;BME280;10238;49.556;10.956;2024-01-16T14:42:13;97538.84;;;1.95;100.00
20156;BME280;10238;49.556;10.956;2024-01-16T14:45:02;97532.06;;;1.81;100.00
20156;BME280;10238;49.556;10.956;2024-01-16T14:47:51;97541.13;;;1.77;100.00
20156;BME280;10238;49.556;10.956;2024-01-16T14:50:40;97538.75;;;1.63;100.00